sensor_id;sensor_type;location;lat;lon;timestamp;pressure;altitude;pressure_sealevel;temperature;humidity
18275;BME280;19470;49.322;7.218;2023-07-13T00:01:19;98718.88;;;19.73;91.24
18275;BME280;19470;49.322;7.218;2023-07-13T00:03:47;98705.53;;;19.82;88.27
18275;BME280;19470;49.322;7.218;2023-07-13T00:06:14;98704.94;;;19.85;88.42
18275;BME280;19470;49.322;7.218;2023-07-13T00:08:40;98705.53;;;19.82;91.96
18275;BME280;19470;49.322;7.218;2023-07-13T00:11:07;98711.94;;;19.72;93.28
18275;BME280;19470;49.322;7.218;2023-07-13T00:13:35;98704.88;;;19.62;93.95
18275;BME280;19470;49.322;7.218;2023-07-13T00:16:03;98702.56;;;19.83;92.88
18275;BME280;19470;49.322;7.218;2023-07-13T00:18:30;98698.88;;;19.79;93.11
18275;BME280;19470;49.322;7.218;2023-07-13T00:20:58;98705.72;;;19.85;92.55
18275;BME280;19470;49.322;7.218;2023-07-13T00:23:30;98706.34;;;19.69;92.71
18275;BME280;19470;49.322;7.218;2023-07-13T00:25:59;98704.56;;;19.50;93.64
18275;BME280;19470;49.322;7.218;2023-07-13T00:28:25;98708.13;;;19.32;94.17
18275;BME280;19470;49.322;7.218;2023-07-13T00:30:52;98712.28;;;19.38;95.11
18275;BME280;19470;49.322;7.218;2023-07-13T00:33:19;98712.03;;;19.67;91.39
18275;BME280;19470;49.322;7.218;2023-07-13T00:35:46;98707.72;;;19.80;91.87
18275;BME280;19470;49.322;7.218;2023-07-13T00:38:14;98712.47;;;19.97;91.32
18275;BME280;19470;49.322;7.218;2023-07-13T00:40:40;98717.69;;;19.79;90.85
18275;BME280;19470;49.322;7.218;2023-07-13T00:43:16;98720.91;;;19.68;91.88
18275;BME280;19470;49.322;7.218;2023-07-13T00:46:13;98725.84;;;19.74;91.73
18275;BME280;19470;49.322;7.218;2023-07-13T00:48:41;98730.00;;;19.80;90.20
18275;BME280;19470;49.322;7.218;2023-07-13T00:51:10;98734.59;;;19.66;89.95
18275;BME280;19470;49.322;7.218;2023-07-13T00:53:39;98742.75;;;19.88;88.33
18275;BME280;19470;49.322;7.218;2023-07-13T00:56:06;98739.47;;;19.36;92.78
18275;BME280;19470;49.322;7.218;2023-07-13T00:58:33;98746.91;;;19.26;92.58
18275;BME280;19470;49.322;7.218;2023-07-13T01:01:00;98735.06;;;19.13;92.62
18275;BME280;19470;49.322;7.218;2023-07-13T01:03:26;98729.22;;;19.25;92.07
18275;BME280;19470;49.322;7.218;2023-07-13T01:05:54;98744.41;;;19.02;94.42
18275;BME280;19470;49.322;7.218;2023-07-13T01:08:21;98736.94;;;19.12;94.41
18275;BME280;19470;49.322;7.218;2023-07-13T01:10:53;98745.91;;;19.22;95.06
18275;BME280;19470;49.322;7.218;2023-07-13T01:13:20;98746.59;;;19.27;93.76
18275;BME280;19470;49.322;7.218;2023-07-13T01:15:48;98746.34;;;18.82;97.59
18275;BME280;19470;49.322;7.218;2023-07-13T01:18:18;98742.47;;;18.88;95.85
18275;BME280;19470;49.322;7.218;2023-07-13T01:20:52;98750.69;;;19.11;94.83
18275;BME280;19470;49.322;7.218;2023-07-13T01:23:19;98754.31;;;18.87;96.13
18275;BME280;19470;49.322;7.218;2023-07-13T01:25:46;98749.38;;;19.08;93.72
18275;BME280;19470;49.322;7.218;2023-07-13T01:28:12;98745.06;;;18.94;95.25
18275;BME280;19470;49.322;7.218;2023-07-13T01:30:40;98743.13;;;18.61;97.22
18275;BME280;19470;49.322;7.218;2023-07-13T01:33:11;98740.38;;;18.85;95.66
18275;BME280;19470;49.322;7.218;2023-07-13T01:35:38;98743.97;;;18.95;93.98
18275;BME280;19470;49.322;7.218;2023-07-13T01:38:06;98743.34;;;18.84;94.49
18275;BME280;19470;49.322;7.218;2023-07-13T01:40:35;98749.91;;;18.59;94.89
18275;BME280;19470;49.322;7.218;2023-07-13T01:43:01;98743.13;;;18.61;93.93
18275;BME280;19470;49.322;7.218;2023-07-13T01:45:28;98752.72;;;18.30;99.00
18275;BME280;19470;49.322;7.218;2023-07-13T01:47:54;98740.38;;;18.67;95.93
18275;BME280;19470;49.322;7.218;2023-07-13T01:50:21;98747.41;;;18.62;95.43
18275;BME280;19470;49.322;7.218;2023-07-13T01:52:47;98736.44;;;18.97;93.62
18275;BME280;19470;49.322;7.218;2023-07-13T01:55:16;98750.47;;;19.07;91.15
18275;BME280;19470;49.322;7.218;2023-07-13T01:57:43;98745.09;;;18.75;92.41
18275;BME280;19470;49.322;7.218;2023-07-13T02:00:11;98753.19;;;18.88;92.27
18275;BME280;19470;49.322;7.218;2023-07-13T02:02:37;98756.34;;;18.39;94.95
18275;BME280;19470;49.322;7.218;2023-07-13T02:05:04;98750.13;;;18.25;97.03
18275;BME280;19470;49.322;7.218;2023-07-13T02:07:31;98756.47;;;17.91;100.00
18275;BME280;19470;49.322;7.218;2023-07-13T02:09:58;98757.13;;;18.02;96.46
18275;BME280;19470;49.322;7.218;2023-07-13T02:12:25;98752.72;;;18.11;95.05
18275;BME280;19470;49.322;7.218;2023-07-13T02:14:52;98761.78;;;18.15;94.57
18275;BME280;19470;49.322;7.218;2023-07-13T02:17:18;98754.75;;;18.00;94.86
18275;BME280;19470;49.322;7.218;2023-07-13T02:19:45;98766.38;;;17.91;94.92
18275;BME280;19470;49.322;7.218;2023-07-13T02:22:11;98758.56;;;17.75;97.07
18275;BME280;19470;49.322;7.218;2023-07-13T02:24:38;98756.47;;;17.91;95.16
18275;BME280;19470;49.322;7.218;2023-07-13T02:27:05;98757.09;;;18.26;92.84
18275;BME280;19470;49.322;7.218;2023-07-13T02:29:34;98757.28;;;18.29;96.94
18275;BME280;19470;49.322;7.218;2023-07-13T02:32:01;98753.47;;;18.17;98.10
18275;BME280;19470;49.322;7.218;2023-07-13T02:34:27;98744.00;;;18.57;95.86
18275;BME280;19470;49.322;7.218;2023-07-13T02:36:54;98755.56;;;18.38;96.66
18275;BME280;19470;49.322;7.218;2023-07-13T02:39:20;98744.41;;;18.12;96.02
18275;BME280;19470;49.322;7.218;2023-07-13T02:41:46;98749.41;;;18.19;97.31
18275;BME280;19470;49.322;7.218;2023-07-13T02:44:13;98752.94;;;18.33;95.89
18275;BME280;19470;49.322;7.218;2023-07-13T02:46:41;98748.13;;;18.87;91.03
18275;BME280;19470;49.322;7.218;2023-07-13T02:49:08;98742.66;;;18.78;91.15
18275;BME280;19470;49.322;7.218;2023-07-13T02:51:35;98751.34;;;18.51;92.23
18275;BME280;19470;49.322;7.218;2023-07-13T02:54:03;98753.59;;;18.06;94.30
18275;BME280;19470;49.322;7.218;2023-07-13T02:56:31;98750.19;;;18.20;93.07
18275;BME280;19470;49.322;7.218;2023-07-13T02:58:58;98751.91;;;17.92;95.70
18275;BME280;19470;49.322;7.218;2023-07-13T03:01:24;98753.84;;;17.62;99.88
18275;BME280;19470;49.322;7.218;2023-07-13T03:03:52;98760.47;;;17.94;98.94
18275;BME280;19470;49.322;7.218;2023-07-13T03:06:19;98761.88;;;17.86;100.00
18275;BME280;19470;49.322;7.218;2023-07-13T03:08:46;98761.59;;;18.11;97.51
18275;BME280;19470;49.322;7.218;2023-07-13T03:11:16;98759.56;;;18.41;97.51
18275;BME280;19470;49.322;7.218;2023-07-13T03:13:43;98766.50;;;18.04;97.52
18275;BME280;19470;49.322;7.218;2023-07-13T03:16:10;98761.66;;;17.58;100.00
18275;BME280;19470;49.322;7.218;2023-07-13T03:18:37;98766.06;;;17.73;100.00
18275;BME280;19470;49.322;7.218;2023-07-13T03:21:06;98765.19;;;18.39;98.07
18275;BME280;19470;49.322;7.218;2023-07-13T03:23:32;98756.72;;;18.70;94.20
18275;BME280;19470;49.322;7.218;2023-07-13T03:26:04;98768.09;;;18.43;96.47
18275;BME280;19470;49.322;7.218;2023-07-13T03:28:30;98778.22;;;18.08;96.34
18275;BME280;19470;49.322;7.218;2023-07-13T03:31:02;98775.06;;;17.82;99.32
18275;BME280;19470;49.322;7.218;2023-07-13T03:33:28;98779.03;;;18.09;97.25
18275;BME280;19470;49.322;7.218;2023-07-13T03:35:55;98768.63;;;17.83;100.00
18275;BME280;19470;49.322;7.218;2023-07-13T03:38:23;98780.53;;;18.15;98.59
18275;BME280;19470;49.322;7.218;2023-07-13T03:40:51;98777.84;;;18.15;97.86
18275;BME280;19470;49.322;7.218;2023-07-13T03:43:17;98785.75;;;18.25;96.73
18275;BME280;19470;49.322;7.218;2023-07-13T03:45:45;98777.72;;;18.25;96.90
18275;BME280;19470;49.322;7.218;2023-07-13T03:48:13;98787.66;;;18.25;95.51
18275;BME280;19470;49.322;7.218;2023-07-13T03:50:40;98790.38;;;18.01;98.31
18275;BME280;19470;49.322;7.218;2023-07-13T03:53:07;98792.16;;;17.86;99.33
18275;BME280;19470;49.322;7.218;2023-07-13T03:55:35;98787.94;;;17.80;100.00
18275;BME280;19470;49.322;7.218;2023-07-13T03:58:23;98787.38;;;17.83;99.76
18275;BME280;19470;49.322;7.218;2023-07-13T04:00:51;98791.66;;;18.27;98.89
18275;BME280;19470;49.322;7.218;2023-07-13T04:03:17;98784.31;;;18.14;99.29
18275;BME280;19470;49.322;7.218;2023-07-13T04:05:44;98793.50;;;18.08;100.00
18275;BME280;19470;49.322;7.218;2023-07-13T04:08:11;98793.06;;;18.01;100.00
18275;BME280;19470;49.322;7.218;2023-07-13T04:10:39;98790.91;;;18.03;100.00
18275;BME280;19470;49.322;7.218;2023-07-13T04:13:05;98785.22;;;17.85;100.00
18275;BME280;19470;49.322;7.218;2023-07-13T04:15:32;98791.47;;;18.00;100.00
18275;BME280;19470;49.322;7.218;2023-07-13T04:17:59;98799.84;;;18.36;98.93
18275;BME280;19470;49.322;7.218;2023-07-13T04:20:26;98798.59;;;18.47;98.59
18275;BME280;19470;49.322;7.218;2023-07-13T04:22:52;98799.53;;;18.94;94.06
18275;BME280;19470;49.322;7.218;2023-07-13T04:25:20;98801.34;;;18.99;93.92
18275;BME280;19470;49.322;7.218;2023-07-13T04:27:47;98809.72;;;19.11;92.27
18275;BME280;19470;49.322;7.218;2023-07-13T04:30:13;98805.59;;;19.00;93.11
18275;BME280;19470;49.322;7.218;2023-07-13T04:32:40;98809.78;;;18.73;95.46
18275;BME280;19470;49.322;7.218;2023-07-13T04:35:07;98810.38;;;18.70;96.81
18275;BME280;19470;49.322;7.218;2023-07-13T04:37:34;98807.44;;;18.85;96.25
18275;BME280;19470;49.322;7.218;2023-07-13T04:40:01;98807.13;;;19.06;94.78
18275;BME280;19470;49.322;7.218;2023-07-13T04:42:27;98819.91;;;18.95;96.18
18275;BME280;19470;49.322;7.218;2023-07-13T04:44:55;98814.38;;;18.73;99.29
18275;BME280;19470;49.322;7.218;2023-07-13T04:47:22;98816.38;;;18.81;100.00
18275;BME280;19470;49.322;7.218;2023-07-13T04:49:48;98819.25;;;19.50;94.30
18275;BME280;19470;49.322;7.218;2023-07-13T04:52:15;98821.13;;;19.35;95.56
18275;BME280;19470;49.322;7.218;2023-07-13T04:54:41;98820.94;;;19.46;93.39
18275;BME280;19470;49.322;7.218;2023-07-13T04:57:08;98828.84;;;19.23;92.82
18275;BME280;19470;49.322;7.218;2023-07-13T04:59:34;98827.69;;;19.57;91.95
18275;BME280;19470;49.322;7.218;2023-07-13T05:02:02;98829.94;;;19.69;92.85
18275;BME280;19470;49.322;7.218;2023-07-13T05:04:29;98828.97;;;19.78;92.00
18275;BME280;19470;49.322;7.218;2023-07-13T05:06:56;98827.16;;;19.87;93.68
18275;BME280;19470;49.322;7.218;2023-07-13T05:09:22;98826.97;;;19.70;93.32
18275;BME280;19470;49.322;7.218;2023-07-13T05:11:49;98826.31;;;19.59;94.00
18275;BME280;19470;49.322;7.218;2023-07-13T05:14:15;98825.75;;;20.04;91.12
18275;BME280;19470;49.322;7.218;2023-07-13T05:16:42;98825.78;;;19.76;93.32
18275;BME280;19470;49.322;7.218;2023-07-13T05:19:10;98830.16;;;19.72;92.77
18275;BME280;19470;49.322;7.218;2023-07-13T05:21:36;98827.84;;;19.79;93.29
18275;BME280;19470;49.322;7.218;2023-07-13T05:24:03;98834.22;;;19.97;93.23
18275;BME280;19470;49.322;7.218;2023-07-13T05:26:29;98834.59;;;20.18;93.42
18275;BME280;19470;49.322;7.218;2023-07-13T05:28:56;98833.09;;;20.26;91.87
18275;BME280;19470;49.322;7.218;2023-07-13T05:31:22;98839.69;;;20.33;92.02
18275;BME280;19470;49.322;7.218;2023-07-13T05:33:49;98835.00;;;20.98;88.48
18275;BME280;19470;49.322;7.218;2023-07-13T05:36:17;98838.22;;;21.00;84.76
18275;BME280;19470;49.322;7.218;2023-07-13T05:38:43;98841.09;;;21.03;84.51
18275;BME280;19470;49.322;7.218;2023-07-13T05:41:10;98848.16;;;21.22;80.84
18275;BME280;19470;49.322;7.218;2023-07-13T05:46:58;98844.31;;;21.14;81.13
18275;BME280;19470;49.322;7.218;2023-07-13T05:49:25;98831.84;;;21.18;81.71
18275;BME280;19470;49.322;7.218;2023-07-13T05:51:53;98846.38;;;21.17;79.66
18275;BME280;19470;49.322;7.218;2023-07-13T05:54:19;98843.88;;;20.98;76.73
18275;BME280;19470;49.322;7.218;2023-07-13T05:56:45;98844.88;;;21.25;78.12
18275;BME280;19470;49.322;7.218;2023-07-13T05:59:12;98853.31;;;21.09;75.37
18275;BME280;19470;49.322;7.218;2023-07-13T06:01:38;98844.53;;;21.26;74.03
18275;BME280;19470;49.322;7.218;2023-07-13T06:04:05;98850.84;;;21.22;75.11
18275;BME280;19470;49.322;7.218;2023-07-13T06:06:32;98862.31;;;20.82;76.22
18275;BME280;19470;49.322;7.218;2023-07-13T06:09:00;98864.28;;;20.90;76.52
18275;BME280;19470;49.322;7.218;2023-07-13T06:11:27;98866.69;;;21.68;73.44
18275;BME280;19470;49.322;7.218;2023-07-13T06:13:55;98865.84;;;21.59;72.34
18275;BME280;19470;49.322;7.218;2023-07-13T06:16:22;98865.47;;;21.74;71.59
18275;BME280;19470;49.322;7.218;2023-07-13T06:18:49;98868.38;;;22.35;68.50
18275;BME280;19470;49.322;7.218;2023-07-13T06:21:17;98870.41;;;22.29;68.80
18275;BME280;19470;49.322;7.218;2023-07-13T06:23:44;98871.72;;;22.58;66.45
18275;BME280;19470;49.322;7.218;2023-07-13T06:26:14;98879.56;;;22.68;65.51
18275;BME280;19470;49.322;7.218;2023-07-13T06:28:41;98873.50;;;22.62;64.88
18275;BME280;19470;49.322;7.218;2023-07-13T06:31:09;98861.13;;;23.13;63.71
18275;BME280;19470;49.322;7.218;2023-07-13T06:33:36;98865.50;;;22.23;63.63
18275;BME280;19470;49.322;7.218;2023-07-13T06:36:04;98872.50;;;22.32;62.74
18275;BME280;19470;49.322;7.218;2023-07-13T06:38:32;98876.81;;;23.37;60.80
18275;BME280;19470;49.322;7.218;2023-07-13T06:40:58;98880.81;;;22.88;61.89
18275;BME280;19470;49.322;7.218;2023-07-13T06:43:26;98875.88;;;23.33;59.98
18275;BME280;19470;49.322;7.218;2023-07-13T06:45:55;98874.38;;;23.62;59.30
18275;BME280;19470;49.322;7.218;2023-07-13T06:48:21;98888.06;;;23.57;57.62
18275;BME280;19470;49.322;7.218;2023-07-13T06:50:49;98889.16;;;22.34;59.15
18275;BME280;19470;49.322;7.218;2023-07-13T06:53:17;98884.66;;;23.21;58.35
18275;BME280;19470;49.322;7.218;2023-07-13T06:55:45;98889.84;;;23.53;56.14
18275;BME280;19470;49.322;7.218;2023-07-13T06:58:12;98892.59;;;23.01;58.89
18275;BME280;19470;49.322;7.218;2023-07-13T07:00:40;98896.16;;;23.74;58.21
18275;BME280;19470;49.322;7.218;2023-07-13T07:03:06;98895.22;;;23.70;58.06
18275;BME280;19470;49.322;7.218;2023-07-13T07:05:33;98897.19;;;24.37;56.76
18275;BME280;19470;49.322;7.218;2023-07-13T07:07:59;98897.69;;;23.11;60.65
18275;BME280;19470;49.322;7.218;2023-07-13T07:10:26;98897.31;;;23.64;58.93
18275;BME280;19470;49.322;7.218;2023-07-13T07:12:53;98895.28;;;24.29;57.23
18275;BME280;19470;49.322;7.218;2023-07-13T07:15:20;98904.34;;;23.05;60.18
18275;BME280;19470;49.322;7.218;2023-07-13T07:17:47;98900.84;;;23.04;61.17
18275;BME280;19470;49.322;7.218;2023-07-13T07:20:14;98901.03;;;23.16;60.91
18275;BME280;19470;49.322;7.218;2023-07-13T07:22:41;98908.13;;;22.78;61.49
18275;BME280;19470;49.322;7.218;2023-07-13T07:25:07;98909.50;;;23.62;57.63
18275;BME280;19470;49.322;7.218;2023-07-13T07:27:34;98906.13;;;24.29;56.65
18275;BME280;19470;49.322;7.218;2023-07-13T07:30:01;98908.66;;;23.96;55.58
18275;BME280;19470;49.322;7.218;2023-07-13T07:32:28;98908.31;;;24.65;55.29
18275;BME280;19470;49.322;7.218;2023-07-13T07:34:57;98905.53;;;25.37;52.53
18275;BME280;19470;49.322;7.218;2023-07-13T07:37:24;98900.84;;;25.58;51.54
18275;BME280;19470;49.322;7.218;2023-07-13T07:39:50;98905.19;;;24.84;54.16
18275;BME280;19470;49.322;7.218;2023-07-13T07:42:17;98911.28;;;24.93;54.09
18275;BME280;19470;49.322;7.218;2023-07-13T07:44:43;98916.84;;;23.70;55.64
18275;BME280;19470;49.322;7.218;2023-07-13T07:47:09;98908.94;;;24.03;55.96
18275;BME280;19470;49.322;7.218;2023-07-13T07:49:37;98912.94;;;25.07;52.97
18275;BME280;19470;49.322;7.218;2023-07-13T07:52:06;98911.88;;;24.78;53.72
18275;BME280;19470;49.322;7.218;2023-07-13T07:54:32;98911.50;;;24.88;53.95
18275;BME280;19470;49.322;7.218;2023-07-13T07:56:59;98912.28;;;24.47;55.62
18275;BME280;19470;49.322;7.218;2023-07-13T07:59:25;98911.44;;;24.76;55.24
18275;BME280;19470;49.322;7.218;2023-07-13T08:01:51;98908.19;;;24.83;54.60
18275;BME280;19470;49.322;7.218;2023-07-13T08:04:18;98910.91;;;24.62;56.71
18275;BME280;19470;49.322;7.218;2023-07-13T08:06:44;98909.75;;;25.46;54.41
18275;BME280;19470;49.322;7.218;2023-07-13T08:09:12;98913.16;;;25.56;54.48
18275;BME280;19470;49.322;7.218;2023-07-13T08:11:39;98915.19;;;24.63;54.89
18275;BME280;19470;49.322;7.218;2023-07-13T08:14:05;98907.66;;;24.68;56.46
18275;BME280;19470;49.322;7.218;2023-07-13T08:16:31;98921.78;;;24.53;56.46
18275;BME280;19470;49.322;7.218;2023-07-13T08:18:58;98918.13;;;24.19;55.25
18275;BME280;19470;49.322;7.218;2023-07-13T08:21:25;98908.84;;;25.42;52.48
18275;BME280;19470;49.322;7.218;2023-07-13T08:23:51;98910.84;;;25.33;53.17
18275;BME280;19470;49.322;7.218;2023-07-13T08:26:19;98905.78;;;25.44;53.07
18275;BME280;19470;49.322;7.218;2023-07-13T08:28:47;98912.38;;;24.51;55.50
18275;BME280;19470;49.322;7.218;2023-07-13T08:31:13;98916.16;;;25.09;54.69
18275;BME280;19470;49.322;7.218;2023-07-13T08:33:40;98902.19;;;26.34;50.92
18275;BME280;19470;49.322;7.218;2023-07-13T08:36:07;98911.56;;;25.21;52.62
18275;BME280;19470;49.322;7.218;2023-07-13T08:38:33;98906.72;;;25.06;53.75
18275;BME280;19470;49.322;7.218;2023-07-13T08:41:04;98899.94;;;25.54;52.20
18275;BME280;19470;49.322;7.218;2023-07-13T08:43:37;98895.75;;;26.51;49.68
18275;BME280;19470;49.322;7.218;2023-07-13T08:46:09;98892.22;;;27.03;49.41
18275;BME280;19470;49.322;7.218;2023-07-13T08:48:41;98906.91;;;28.02;46.69
18275;BME280;19470;49.322;7.218;2023-07-13T08:51:16;98903.56;;;28.09;46.11
18275;BME280;19470;49.322;7.218;2023-07-13T08:53:48;98897.16;;;28.33;45.78
18275;BME280;19470;49.322;7.218;2023-07-13T08:56:18;98895.31;;;28.72;43.90
18275;BME280;19470;49.322;7.218;2023-07-13T08:58:51;98898.13;;;25.46;51.97
18275;BME280;19470;49.322;7.218;2023-07-13T09:01:23;98897.75;;;27.07;49.31
18275;BME280;19470;49.322;7.218;2023-07-13T09:03:56;98903.06;;;27.71;46.46
18275;BME280;19470;49.322;7.218;2023-07-13T09:06:35;98903.84;;;27.88;46.97
18275;BME280;19470;49.322;7.218;2023-07-13T09:09:09;98901.94;;;27.44;48.22
18275;BME280;19470;49.322;7.218;2023-07-13T09:11:45;98903.56;;;27.33;47.74
18275;BME280;19470;49.322;7.218;2023-07-13T09:14:29;98900.16;;;26.31;49.87
18275;BME280;19470;49.322;7.218;2023-07-13T09:17:00;98905.00;;;26.38;49.15
18275;BME280;19470;49.322;7.218;2023-07-13T09:19:30;98897.66;;;26.38;49.60
18275;BME280;19470;49.322;7.218;2023-07-13T09:21:59;98899.19;;;28.20;46.66
18275;BME280;19470;49.322;7.218;2023-07-13T09:24:35;98907.03;;;27.62;46.88
18275;BME280;19470;49.322;7.218;2023-07-13T09:27:09;98911.81;;;26.07;49.29
18275;BME280;19470;49.322;7.218;2023-07-13T09:29:41;98898.50;;;27.91;46.60
18275;BME280;19470;49.322;7.218;2023-07-13T09:32:14;98894.97;;;28.38;45.02
18275;BME280;19470;49.322;7.218;2023-07-13T09:34:41;98911.81;;;26.32;48.29
18275;BME280;19470;49.322;7.218;2023-07-13T09:37:07;98903.88;;;28.55;43.95
18275;BME280;19470;49.322;7.218;2023-07-13T09:39:37;98908.63;;;28.42;42.91
18275;BME280;19470;49.322;7.218;2023-07-13T09:42:08;98899.81;;;28.84;43.53
18275;BME280;19470;49.322;7.218;2023-07-13T09:44:53;98907.72;;;28.18;43.36
18275;BME280;19470;49.322;7.218;2023-07-13T09:47:22;98906.19;;;29.69;41.14
18275;BME280;19470;49.322;7.218;2023-07-13T09:49:54;98907.94;;;28.45;43.05
18275;BME280;19470;49.322;7.218;2023-07-13T09:52:21;98906.94;;;26.62;46.25
18275;BME280;19470;49.322;7.218;2023-07-13T09:54:49;98913.94;;;27.71;45.29
18275;BME280;19470;49.322;7.218;2023-07-13T09:57:19;98897.44;;;26.96;46.00
18275;BME280;19470;49.322;7.218;2023-07-13T09:59:52;98904.16;;;26.86;46.34
18275;BME280;19470;49.322;7.218;2023-07-13T10:02:27;98902.72;;;28.05;45.14
18275;BME280;19470;49.322;7.218;2023-07-13T10:04:59;98899.63;;;27.46;44.69
18275;BME280;19470;49.322;7.218;2023-07-13T10:07:26;98891.97;;;29.37;41.25
18275;BME280;19470;49.322;7.218;2023-07-13T10:09:53;98896.16;;;28.57;42.34
18275;BME280;19470;49.322;7.218;2023-07-13T10:12:20;98910.44;;;28.34;43.31
18275;BME280;19470;49.322;7.218;2023-07-13T10:14:52;98898.88;;;29.53;41.68
18275;BME280;19470;49.322;7.218;2023-07-13T10:17:26;98910.53;;;28.92;43.35
18275;BME280;19470;49.322;7.218;2023-07-13T10:19:58;98894.66;;;30.82;38.69
18275;BME280;19470;49.322;7.218;2023-07-13T10:22:27;98903.88;;;30.70;38.51
18275;BME280;19470;49.322;7.218;2023-07-13T10:24:57;98893.38;;;30.19;39.19
18275;BME280;19470;49.322;7.218;2023-07-13T10:27:29;98899.91;;;29.26;39.79
18275;BME280;19470;49.322;7.218;2023-07-13T10:30:06;98894.22;;;28.76;40.34
18275;BME280;19470;49.322;7.218;2023-07-13T10:32:35;98900.91;;;30.02;38.82
18275;BME280;19470;49.322;7.218;2023-07-13T10:35:03;98912.06;;;27.75;41.03
18275;BME280;19470;49.322;7.218;2023-07-13T10:37:41;98901.00;;;26.84;43.36
18275;BME280;19470;49.322;7.218;2023-07-13T10:40:13;98906.22;;;26.77;44.30
18275;BME280;19470;49.322;7.218;2023-07-13T10:42:44;98903.59;;;28.60;40.71
18275;BME280;19470;49.322;7.218;2023-07-13T10:45:15;98896.16;;;27.18;44.85
18275;BME280;19470;49.322;7.218;2023-07-13T10:47:43;98901.41;;;26.98;45.15
18275;BME280;19470;49.322;7.218;2023-07-13T10:50:21;98904.63;;;26.88;45.79
18275;BME280;19470;49.322;7.218;2023-07-13T10:52:49;98914.38;;;27.45;45.28
18275;BME280;19470;49.322;7.218;2023-07-13T10:55:37;98915.84;;;26.87;44.08
18275;BME280;19470;49.322;7.218;2023-07-13T10:58:12;98913.00;;;26.83;44.39
18275;BME280;19470;49.322;7.218;2023-07-13T11:00:56;98915.50;;;28.04;43.18
18275;BME280;19470;49.322;7.218;2023-07-13T11:03:27;98906.94;;;27.86;42.50
18275;BME280;19470;49.322;7.218;2023-07-13T11:06:06;98898.69;;;27.55;41.95
18275;BME280;19470;49.322;7.218;2023-07-13T11:08:36;98905.84;;;28.93;40.88
18275;BME280;19470;49.322;7.218;2023-07-13T11:11:35;98883.56;;;30.97;36.44
18275;BME280;19470;49.322;7.218;2023-07-13T11:14:04;98893.97;;;30.09;37.50
18275;BME280;19470;49.322;7.218;2023-07-13T11:16:42;98893.34;;;29.50;36.99
18275;BME280;19470;49.322;7.218;2023-07-13T11:19:26;98889.25;;;28.63;38.90
18275;BME280;19470;49.322;7.218;2023-07-13T11:22:10;98897.41;;;29.37;37.84
18275;BME280;19470;49.322;7.218;2023-07-13T11:24:56;98897.88;;;27.82;39.65
18275;BME280;19470;49.322;7.218;2023-07-13T11:27:36;98911.91;;;27.00;42.29
18275;BME280;19470;49.322;7.218;2023-07-13T11:30:08;98897.00;;;28.10;39.62
18275;BME280;19470;49.322;7.218;2023-07-13T11:32:35;98912.09;;;27.47;40.68
18275;BME280;19470;49.322;7.218;2023-07-13T11:35:04;98898.16;;;27.49;40.42
18275;BME280;19470;49.322;7.218;2023-07-13T11:37:30;98895.22;;;28.88;38.64
18275;BME280;19470;49.322;7.218;2023-07-13T11:39:58;98892.75;;;29.79;38.36
18275;BME280;19470;49.322;7.218;2023-07-13T11:42:28;98893.53;;;28.28;38.96
18275;BME280;19470;49.322;7.218;2023-07-13T11:44:54;98894.31;;;27.22;41.54
18275;BME280;19470;49.322;7.218;2023-07-13T11:47:22;98906.06;;;26.45;43.23
18275;BME280;19470;49.322;7.218;2023-07-13T11:49:52;98902.06;;;27.20;43.11
18275;BME280;19470;49.322;7.218;2023-07-13T11:52:25;98889.78;;;27.26;42.60
18275;BME280;19470;49.322;7.218;2023-07-13T11:54:55;98899.31;;;26.80;41.59
18275;BME280;19470;49.322;7.218;2023-07-13T11:57:24;98906.69;;;26.42;42.33
18275;BME280;19470;49.322;7.218;2023-07-13T11:59:54;98910.09;;;25.90;43.18
18275;BME280;19470;49.322;7.218;2023-07-13T12:02:26;98903.66;;;26.68;41.79
18275;BME280;19470;49.322;7.218;2023-07-13T12:04:54;98903.97;;;26.79;42.13
18275;BME280;19470;49.322;7.218;2023-07-13T12:07:22;98919.59;;;26.82;41.91
18275;BME280;19470;49.322;7.218;2023-07-13T12:09:48;98906.81;;;27.98;40.08
18275;BME280;19470;49.322;7.218;2023-07-13T12:12:18;98900.63;;;26.21;42.08
18275;BME280;19470;49.322;7.218;2023-07-13T12:14:45;98906.19;;;26.89;41.91
18275;BME280;19470;49.322;7.218;2023-07-13T12:17:21;98914.34;;;26.89;42.58
18275;BME280;19470;49.322;7.218;2023-07-13T12:19:48;98898.53;;;27.63;41.00
18275;BME280;19470;49.322;7.218;2023-07-13T12:22:17;98912.91;;;26.67;43.64
18275;BME280;19470;49.322;7.218;2023-07-13T12:24:45;98909.78;;;26.41;44.19
18275;BME280;19470;49.322;7.218;2023-07-13T12:27:20;98918.50;;;26.46;44.50
18275;BME280;19470;49.322;7.218;2023-07-13T12:29:52;98916.50;;;27.24;42.99
18275;BME280;19470;49.322;7.218;2023-07-13T12:32:21;98910.88;;;27.45;41.23
18275;BME280;19470;49.322;7.218;2023-07-13T12:34:53;98902.63;;;28.01;41.55
18275;BME280;19470;49.322;7.218;2023-07-13T12:37:20;98907.78;;;27.74;42.47
18275;BME280;19470;49.322;7.218;2023-07-13T12:39:48;98916.66;;;27.43;41.86
18275;BME280;19470;49.322;7.218;2023-07-13T12:42:20;98908.50;;;26.75;42.68
18275;BME280;19470;49.322;7.218;2023-07-13T12:44:49;98915.81;;;27.27;42.26
18275;BME280;19470;49.322;7.218;2023-07-13T12:47:16;98923.13;;;27.67;40.50
18275;BME280;19470;49.322;7.218;2023-07-13T12:49:50;98911.81;;;27.09;42.05
18275;BME280;19470;49.322;7.218;2023-07-13T12:52:22;98934.41;;;27.53;41.22
18275;BME280;19470;49.322;7.218;2023-07-13T12:54:53;98922.09;;;27.43;41.23
18275;BME280;19470;49.322;7.218;2023-07-13T12:57:22;98916.66;;;28.03;40.31
18275;BME280;19470;49.322;7.218;2023-07-13T12:59:52;98909.44;;;28.26;40.40
18275;BME280;19470;49.322;7.218;2023-07-13T13:02:29;98910.63;;;27.50;41.44
18275;BME280;19470;49.322;7.218;2023-07-13T13:04:57;98912.97;;;27.51;41.92
18275;BME280;19470;49.322;7.218;2023-07-13T13:10:46;98911.78;;;27.65;40.47
18275;BME280;19470;49.322;7.218;2023-07-13T13:13:12;98921.59;;;27.54;40.99
18275;BME280;19470;49.322;7.218;2023-07-13T13:15:39;98914.34;;;27.30;41.07